Time;durP1;ratioP1;P1;durP2;ratioP2;P2;SDS_P1;SDS_P2;PMS_P1;PMS_P2;Temp;Humidity;BMP_temperature;BMP_pressure;BME280_temperature;BME280_humidity;BME280_pressure;Samples;Min_cycle;Max_cycle;Signal;HPM_P1;HPM_P2
2021/07/29 00:00:54;;;;;;;11.75;3.58;;;;;;;;;;4959028;28;20047;-77
2021/07/29 00:03:21;;;;;;;7.07;2.90;;;;;;;;;;4958880;28;20051;-77
2021/07/29 00:05:49;;;;;;;4.93;2.97;;;;;;;;;;4958334;28;20055;-77
2021/07/29 00:08:17;;;;;;;6.68;3.65;;;;;;;;;;4959378;29;20051;-77
2021/07/29 00:10:46;;;;;;;9.68;3.75;;;;;;;;;;4958896;28;20130;-77
2021/07/29 00:13:13;;;;;;;6.70;3.88;;;;;;;;;;4958900;29;20071;-77
2021/07/29 00:15:40;;;;;;;6.40;3.97;;;;;;;;;;4958720;28;20047;-78
2021/07/29 00:20:51;;;;;;;7.25;3.92;;;;;;;;;;4958894;29;20106;-77
2021/07/29 00:23:17;;;;;;;7.45;3.72;;;;;;;;;;4958449;28;20520;-77
2021/07/29 00:25:46;;;;;;;5.53;3.63;;;;;;;;;;4957786;28;20043;-77
2021/07/29 00:28:12;;;;;;;8.50;4.20;;;;;;;;;;4958075;28;20501;-77
2021/07/29 00:30:39;;;;;;;8.25;3.95;;;;;;;;;;4958628;28;20103;-77
2021/07/29 00:33:06;;;;;;;6.53;4.13;;;;;;;;;;4958663;29;20095;-77
2021/07/29 00:35:33;;;;;;;8.45;4.13;;;;;;;;;;4959729;28;20047;-77
2021/07/29 00:38:02;;;;;;;8.00;4.57;;;;;;;;;;4959231;28;20051;-77
2021/07/29 00:40:29;;;;;;;6.22;3.58;;;;;;;;;;4958680;28;20051;-77
2021/07/29 00:42:58;;;;;;;6.78;3.50;;;;;;;;;;4957837;29;20238;-77
2021/07/29 00:45:25;;;;;;;7.82;4.20;;;;;;;;;;4957206;29;20106;-77
2021/07/29 00:47:53;;;;;;;8.10;4.45;;;;;;;;;;4957353;28;20099;-77
2021/07/29 00:50:20;;;;;;;8.57;4.47;;;;;;;;;;4956882;28;20055;-77
2021/07/29 00:52:48;;;;;;;7.13;4.35;;;;;;;;;;4957142;28;20488;-77
2021/07/29 00:55:16;;;;;;;7.80;5.07;;;;;;;;;;4955968;28;20053;-77
2021/07/29 00:57:44;;;;;;;8.85;4.40;;;;;;;;;;4956984;28;20052;-77
2021/07/29 01:00:13;;;;;;;6.75;4.28;;;;;;;;;;4957130;29;20496;-77
2021/07/29 01:02:40;;;;;;;9.10;4.80;;;;;;;;;;4957233;29;20114;-77
2021/07/29 01:05:09;;;;;;;8.98;5.05;;;;;;;;;;4956787;29;20052;-77
2021/07/29 01:07:36;;;;;;;7.25;4.05;;;;;;;;;;4957497;29;20055;-77
2021/07/29 01:10:04;;;;;;;8.65;4.10;;;;;;;;;;4971235;28;20074;-76
2021/07/29 01:12:31;;;;;;;10.57;4.25;;;;;;;;;;4972504;28;20054;-77
2021/07/29 01:14:58;;;;;;;10.20;6.63;;;;;;;;;;4972292;28;20115;-77
2021/07/29 01:17:26;;;;;;;11.77;7.15;;;;;;;;;;4971979;29;20163;-77
2021/07/29 01:19:53;;;;;;;10.85;6.45;;;;;;;;;;4971373;29;20492;-77
2021/07/29 01:22:21;;;;;;;11.35;6.30;;;;;;;;;;4963285;29;20051;-76
2021/07/29 01:24:48;;;;;;;13.35;7.15;;;;;;;;;;4957811;28;20047;-77
2021/07/29 01:27:18;;;;;;;11.15;6.55;;;;;;;;;;4957085;28;20051;-77
2021/07/29 01:29:46;;;;;;;;;;;;;;;;;;4957199;29;20416;-79
2021/07/29 01:32:12;;;;;;;9.57;5.75;;;;;;;;;;4956797;28;19922;-77
2021/07/29 01:34:39;;;;;;;9.38;5.30;;;;;;;;;;4957066;28;20106;-77
2021/07/29 01:37:06;;;;;;;9.85;5.03;;;;;;;;;;4957138;28;20107;-77
2021/07/29 01:39:34;;;;;;;7.25;4.32;;;;;;;;;;4957740;28;20059;-77
2021/07/29 01:42:01;;;;;;;7.93;4.32;;;;;;;;;;4957181;28;20054;-77
2021/07/29 01:44:28;;;;;;;11.75;3.90;;;;;;;;;;4956200;28;20055;-78
2021/07/29 01:46:54;;;;;;;7.35;3.85;;;;;;;;;;4956103;29;20047;-77
2021/07/29 01:49:22;;;;;;;7.82;4.35;;;;;;;;;;4956484;28;20051;-77
2021/07/29 01:51:50;;;;;;;8.60;4.20;;;;;;;;;;4956150;28;20685;-77
2021/07/29 01:54:16;;;;;;;7.28;4.15;;;;;;;;;;4955887;28;20493;-76
2021/07/29 01:56:45;;;;;;;6.93;3.80;;;;;;;;;;4955808;28;20043;-77
2021/07/29 01:59:11;;;;;;;7.38;3.90;;;;;;;;;;4956281;28;20180;-77
2021/07/29 02:01:40;;;;;;;7.80;4.32;;;;;;;;;;4956213;29;20059;-77
2021/07/29 02:04:07;;;;;;;7.00;3.85;;;;;;;;;;4956184;28;20501;-77
2021/07/29 02:06:37;;;;;;;7.07;4.07;;;;;;;;;;4954981;28;20484;-78
2021/07/29 02:09:05;;;;;;;7.13;4.10;;;;;;;;;;4955721;29;20139;-77
2021/07/29 02:11:34;;;;;;;7.70;3.53;;;;;;;;;;4955544;29;20545;-76
2021/07/29 02:14:02;;;;;;;8.17;3.70;;;;;;;;;;4955520;29;20051;-76
2021/07/29 02:16:30;;;;;;;7.95;3.80;;;;;;;;;;4955035;29;20468;-77
2021/07/29 02:18:57;;;;;;;7.63;3.80;;;;;;;;;;4955126;28;20058;-76
2021/07/29 02:21:23;;;;;;;7.80;4.28;;;;;;;;;;4954958;29;20051;-77
2021/07/29 02:23:50;;;;;;;7.68;4.18;;;;;;;;;;4955232;28;20560;-77
2021/07/29 02:26:17;;;;;;;8.35;4.47;;;;;;;;;;4954631;28;20055;-77
2021/07/29 02:28:44;;;;;;;9.48;5.15;;;;;;;;;;4954987;28;20386;-77
2021/07/29 02:31:12;;;;;;;8.43;5.43;;;;;;;;;;4955135;28;20055;-78
2021/07/29 02:33:39;;;;;;;8.95;5.43;;;;;;;;;;4955146;29;20332;-77
2021/07/29 02:36:06;;;;;;;7.80;4.78;;;;;;;;;;4954468;28;20553;-78
2021/07/29 02:38:33;;;;;;;10.30;5.63;;;;;;;;;;4954903;28;20130;-77
2021/07/29 02:41:00;;;;;;;9.27;4.75;;;;;;;;;;4954563;28;20055;-77
2021/07/29 02:43:27;;;;;;;7.88;4.82;;;;;;;;;;4954860;28;20048;-77
2021/07/29 02:45:54;;;;;;;8.80;4.85;;;;;;;;;;4954523;28;20047;-77
2021/07/29 02:48:22;;;;;;;8.57;4.72;;;;;;;;;;4954704;28;20512;-77
2021/07/29 02:50:54;;;;;;;9.48;5.07;;;;;;;;;;4954835;28;20047;-77
2021/07/29 02:53:21;;;;;;;8.60;5.07;;;;;;;;;;4954631;28;20114;-77
2021/07/29 02:55:48;;;;;;;10.52;4.72;;;;;;;;;;4954665;28;20051;-77
2021/07/29 02:58:15;;;;;;;10.25;5.00;;;;;;;;;;4954446;28;20051;-77
2021/07/29 03:00:42;;;;;;;7.53;4.60;;;;;;;;;;4954390;28;20055;-77
2021/07/29 03:03:08;;;;;;;7.70;4.72;;;;;;;;;;4954470;28;20501;-77
2021/07/29 03:05:37;;;;;;;9.70;5.10;;;;;;;;;;4954042;28;20106;-77
2021/07/29 03:08:04;;;;;;;7.88;4.90;;;;;;;;;;4954328;28;20106;-77
2021/07/29 03:10:30;;;;;;;6.93;4.28;;;;;;;;;;4954309;28;20096;-77
2021/07/29 03:12:59;;;;;;;9.20;4.90;;;;;;;;;;4954045;28;20098;-77
2021/07/29 03:15:26;;;;;;;7.63;5.40;;;;;;;;;;4954435;28;20051;-77
2021/07/29 03:17:53;;;;;;;9.20;5.13;;;;;;;;;;4954063;28;20091;-77
2021/07/29 03:20:20;;;;;;;8.65;5.22;;;;;;;;;;4953961;28;20046;-77
2021/07/29 03:22:48;;;;;;;8.20;5.05;;;;;;;;;;4954279;28;20094;-77
2021/07/29 03:25:15;;;;;;;8.60;4.50;;;;;;;;;;4954491;28;20051;-76
2021/07/29 03:27:42;;;;;;;8.05;4.78;;;;;;;;;;4954529;28;20051;-77
2021/07/29 03:30:10;;;;;;;10.27;5.30;;;;;;;;;;4954411;28;20051;-77
2021/07/29 03:32:36;;;;;;;8.50;4.70;;;;;;;;;;4954717;28;20110;-76
2021/07/29 03:35:04;;;;;;;7.35;4.55;;;;;;;;;;4954241;28;20051;-77
2021/07/29 03:37:30;;;;;;;7.20;4.10;;;;;;;;;;4954662;28;20094;-77
2021/07/29 03:40:04;;;;;;;7.78;4.00;;;;;;;;;;4953972;28;20055;-77
2021/07/29 03:42:31;;;;;;;8.80;4.43;;;;;;;;;;4954339;28;20416;-77
2021/07/29 03:44:58;;;;;;;9.27;4.80;;;;;;;;;;4954050;28;20098;-77
2021/07/29 03:47:25;;;;;;;7.43;4.43;;;;;;;;;;4953956;28;20051;-77
2021/07/29 03:49:52;;;;;;;11.90;4.82;;;;;;;;;;4954121;28;20044;-76
2021/07/29 03:52:19;;;;;;;8.45;4.28;;;;;;;;;;4953910;28;20054;-77
2021/07/29 03:54:45;;;;;;;7.03;4.15;;;;;;;;;;4953570;28;20094;-76
2021/07/29 03:57:13;;;;;;;8.45;4.25;;;;;;;;;;4954113;28;20053;-77
2021/07/29 03:59:40;;;;;;;8.15;3.83;;;;;;;;;;4953781;28;20076;-76
2021/07/29 04:02:10;;;;;;;7.90;3.80;;;;;;;;;;4954201;28;20043;-77
2021/07/29 04:04:38;;;;;;;6.75;4.03;;;;;;;;;;4953863;28;20055;-76
2021/07/29 04:07:05;;;;;;;6.78;3.90;;;;;;;;;;4953972;28;20052;-77
2021/07/29 04:09:32;;;;;;;6.22;3.83;;;;;;;;;;4953921;28;20069;-76
2021/07/29 04:11:59;;;;;;;8.27;4.80;;;;;;;;;;4953758;28;20087;-77
2021/07/29 04:14:27;;;;;;;8.63;5.00;;;;;;;;;;4954041;28;20044;-77
2021/07/29 04:16:54;;;;;;;10.05;5.70;;;;;;;;;;4953812;28;20047;-77
2021/07/29 04:19:21;;;;;;;8.68;5.32;;;;;;;;;;4953435;29;20500;-77
2021/07/29 04:21:48;;;;;;;9.85;5.68;;;;;;;;;;4953634;28;20044;-76
2021/07/29 04:24:16;;;;;;;9.35;5.10;;;;;;;;;;4953385;28;20055;-77
2021/07/29 04:26:43;;;;;;;8.55;4.47;;;;;;;;;;4953551;28;20102;-77
2021/07/29 04:29:10;;;;;;;8.50;4.57;;;;;;;;;;4953859;28;20051;-77
2021/07/29 04:31:38;;;;;;;10.18;5.38;;;;;;;;;;4957520;28;20043;-77
2021/07/29 04:34:05;;;;;;;7.63;3.80;;;;;;;;;;4957133;28;20500;-76
2021/07/29 04:36:31;;;;;;;7.25;4.05;;;;;;;;;;4957537;29;20047;-77
2021/07/29 04:38:58;;;;;;;9.40;4.97;;;;;;;;;;4957415;28;20055;-76
2021/07/29 04:41:25;;;;;;;7.70;4.28;;;;;;;;;;4957152;28;20043;-77
2021/07/29 04:43:53;;;;;;;9.10;5.15;;;;;;;;;;4956946;28;20401;-77
2021/07/29 04:46:20;;;;;;;11.30;5.63;;;;;;;;;;4956720;28;20048;-78
2021/07/29 04:48:48;;;;;;;9.75;5.38;;;;;;;;;;4956730;29;20051;-77
2021/07/29 04:51:14;;;;;;;8.30;5.03;;;;;;;;;;4957155;28;20047;-78
2021/07/29 04:53:41;;;;;;;10.95;5.43;;;;;;;;;;4956669;28;20047;-77
2021/07/29 04:56:08;;;;;;;9.55;4.85;;;;;;;;;;4956671;28;20051;-77
2021/07/29 04:58:35;;;;;;;9.90;5.57;;;;;;;;;;4956553;28;20489;-77
2021/07/29 05:01:04;;;;;;;10.57;5.40;;;;;;;;;;4956641;28;20098;-77
2021/07/29 05:03:30;;;;;;;11.95;6.00;;;;;;;;;;4956700;28;20051;-77
2021/07/29 05:06:00;;;;;;;11.10;5.93;;;;;;;;;;4956532;28;20098;-78
2021/07/29 05:08:27;;;;;;;9.38;5.13;;;;;;;;;;4956654;28;20493;-77
2021/07/29 05:10:54;;;;;;;11.02;6.85;;;;;;;;;;4956559;28;20106;-77
2021/07/29 05:13:21;;;;;;;11.20;6.50;;;;;;;;;;4940751;28;20130;-77
2021/07/29 05:15:47;;;;;;;10.13;5.65;;;;;;;;;;4937170;29;20044;-77
2021/07/29 05:18:14;;;;;;;12.40;5.82;;;;;;;;;;4937292;29;20129;-77
2021/07/29 05:20:41;;;;;;;10.77;5.35;;;;;;;;;;4937365;29;20497;-77
2021/07/29 05:23:09;;;;;;;8.25;4.95;;;;;;;;;;4937102;29;20048;-77
2021/07/29 05:25:36;;;;;;;10.43;5.65;;;;;;;;;;4938116;29;20048;-78
2021/07/29 05:28:03;;;;;;;10.75;5.72;;;;;;;;;;4939713;29;20497;-77
2021/07/29 05:30:30;;;;;;;9.55;5.50;;;;;;;;;;4938536;29;20106;-78
2021/07/29 05:32:58;;;;;;;8.00;5.28;;;;;;;;;;4937484;29;20081;-76
2021/07/29 05:35:25;;;;;;;8.45;4.95;;;;;;;;;;4937253;29;20048;-76
2021/07/29 05:37:51;;;;;;;9.18;5.13;;;;;;;;;;4937001;29;20055;-76
2021/07/29 05:40:20;;;;;;;10.65;5.47;;;;;;;;;;4937111;29;20474;-77
2021/07/29 05:42:47;;;;;;;9.60;5.28;;;;;;;;;;4936713;29;20051;-77
2021/07/29 05:45:14;;;;;;;8.85;5.13;;;;;;;;;;4936499;29;20079;-77
2021/07/29 05:47:42;;;;;;;10.82;5.60;;;;;;;;;;4937024;29;20245;-77
2021/07/29 05:50:09;;;;;;;8.95;5.40;;;;;;;;;;4936843;29;20047;-77
2021/07/29 05:52:36;;;;;;;9.40;5.32;;;;;;;;;;4936945;29;20466;-76
2021/07/29 05:55:03;;;;;;;11.38;6.38;;;;;;;;;;4936304;29;20224;-77
2021/07/29 05:57:33;;;;;;;10.85;6.03;;;;;;;;;;4936440;29;20497;-77
2021/07/29 06:00:00;;;;;;;9.38;5.00;;;;;;;;;;4936460;29;20098;-77
2021/07/29 06:02:27;;;;;;;9.25;5.68;;;;;;;;;;4936733;29;20047;-77
2021/07/29 06:04:54;;;;;;;8.88;5.35;;;;;;;;;;4936792;29;20056;-78
2021/07/29 06:07:21;;;;;;;8.77;5.22;;;;;;;;;;4937652;29;20058;-78
2021/07/29 06:09:48;;;;;;;9.32;5.35;;;;;;;;;;4937603;29;20107;-77
2021/07/29 06:12:15;;;;;;;9.05;5.63;;;;;;;;;;4942121;29;20048;-78
2021/07/29 06:14:43;;;;;;;7.97;4.90;;;;;;;;;;4940054;29;20055;-77
2021/07/29 06:17:10;;;;;;;8.13;5.03;;;;;;;;;;4936227;29;20103;-77
2021/07/29 06:19:39;;;;;;;7.25;4.65;;;;;;;;;;4936018;29;20048;-77
2021/07/29 06:22:06;;;;;;;9.07;5.85;;;;;;;;;;4936102;29;20179;-76
2021/07/29 06:24:33;;;;;;;11.73;5.30;;;;;;;;;;4935772;29;20115;-77
2021/07/29 06:27:00;;;;;;;8.77;5.30;;;;;;;;;;4936305;29;20103;-77
2021/07/29 06:29:26;;;;;;;8.35;4.60;;;;;;;;;;4937120;29;20047;-77
2021/07/29 06:31:54;;;;;;;11.57;6.05;;;;;;;;;;4937435;29;20117;-77
2021/07/29 06:34:21;;;;;;;8.73;4.78;;;;;;;;;;4937020;29;20048;-77
2021/07/29 06:36:48;;;;;;;8.98;4.88;;;;;;;;;;4936655;29;20477;-79
2021/07/29 06:39:15;;;;;;;9.18;5.55;;;;;;;;;;4936595;29;20497;-78
2021/07/29 06:41:42;;;;;;;9.27;4.97;;;;;;;;;;4937473;29;20048;-78
2021/07/29 06:44:09;;;;;;;7.95;5.15;;;;;;;;;;4936859;29;20095;-77
2021/07/29 06:46:37;;;;;;;8.98;5.00;;;;;;;;;;4936092;29;20098;-77
2021/07/29 06:49:05;;;;;;;8.45;5.50;;;;;;;;;;4936810;29;20055;-78
2021/07/29 06:51:32;;;;;;;7.80;4.78;;;;;;;;;;4936937;29;20052;-78
2021/07/29 06:54:00;;;;;;;8.20;4.38;;;;;;;;;;4936322;29;20059;-78
2021/07/29 06:56:27;;;;;;;8.60;5.55;;;;;;;;;;4935606;29;20127;-77
2021/07/29 06:58:53;;;;;;;8.73;5.25;;;;;;;;;;4935960;29;20123;-77
2021/07/29 07:01:20;;;;;;;8.15;4.82;;;;;;;;;;4943157;29;20043;-77
2021/07/29 07:03:48;;;;;;;7.40;3.92;;;;;;;;;;4954944;28;20102;-77
2021/07/29 07:06:16;;;;;;;10.40;4.68;;;;;;;;;;4950469;28;20058;-77
2021/07/29 07:08:43;;;;;;;9.90;4.60;;;;;;;;;;4952493;29;20508;-76
2021/07/29 07:11:15;;;;;;;8.27;4.15;;;;;;;;;;4953639;29;20051;-78
2021/07/29 07:13:43;;;;;;;7.13;4.65;;;;;;;;;;4952937;29;20059;-77
2021/07/29 07:16:11;;;;;;;6.78;4.20;;;;;;;;;;4952346;28;20492;-76
2021/07/29 07:18:38;;;;;;;7.25;4.55;;;;;;;;;;4954584;29;20111;-77
2021/07/29 07:21:06;;;;;;;8.88;4.78;;;;;;;;;;4953582;28;20102;-75
2021/07/29 07:23:34;;;;;;;9.52;4.38;;;;;;;;;;4952770;29;20356;-76
2021/07/29 07:26:01;;;;;;;7.07;4.40;;;;;;;;;;4953622;28;20059;-76
2021/07/29 07:28:28;;;;;;;9.63;4.75;;;;;;;;;;4953498;29;20051;-77
2021/07/29 07:30:55;;;;;;;7.22;4.45;;;;;;;;;;4953865;29;20487;-76
2021/07/29 07:33:22;;;;;;;10.50;4.90;;;;;;;;;;4952845;28;20106;-76
2021/07/29 07:35:49;;;;;;;10.80;5.25;;;;;;;;;;4954049;28;20165;-77
2021/07/29 07:38:16;;;;;;;8.90;4.82;;;;;;;;;;4957205;28;20081;-76
2021/07/29 07:40:45;;;;;;;9.07;4.93;;;;;;;;;;4973849;23;20355;-82
2021/07/29 07:43:11;;;;;;;9.32;5.85;;;;;;;;;;4958276;29;20047;-83
2021/07/29 07:45:38;;;;;;;8.15;4.60;;;;;;;;;;4958491;29;20105;-82
2021/07/29 07:48:06;;;;;;;9.20;5.00;;;;;;;;;;4959386;29;20098;-82
2021/07/29 07:50:33;;;;;;;7.80;4.20;;;;;;;;;;4953828;29;20051;-82
2021/07/29 07:53:04;;;;;;;9.23;5.25;;;;;;;;;;4938531;29;20048;-83
2021/07/29 07:55:31;;;;;;;7.38;4.72;;;;;;;;;;4940933;29;20044;-84
2021/07/29 07:58:00;;;;;;;8.52;4.82;;;;;;;;;;4938791;29;20052;-84
2021/07/29 08:00:26;;;;;;;8.13;5.13;;;;;;;;;;4938269;29;20051;-84
2021/07/29 08:02:53;;;;;;;10.18;4.70;;;;;;;;;;4939473;29;20139;-84
2021/07/29 08:05:20;;;;;;;7.93;5.03;;;;;;;;;;4950109;29;20099;-83
2021/07/29 08:07:47;;;;;;;11.48;9.13;;;;;;;;;;4955367;29;20488;-84
2021/07/29 08:10:14;;;;;;;9.65;5.93;;;;;;;;;;4945070;29;20496;-85
2021/07/29 08:12:41;;;;;;;8.25;4.60;;;;;;;;;;4941319;29;20043;-84
2021/07/29 08:15:10;;;;;;;9.50;5.03;;;;;;;;;;4940708;29;20047;-84
2021/07/29 08:17:37;;;;;;;8.65;5.00;;;;;;;;;;4941322;29;20107;-84
2021/07/29 08:20:04;;;;;;;7.88;4.60;;;;;;;;;;4940399;29;20058;-84
2021/07/29 08:22:31;;;;;;;7.85;4.82;;;;;;;;;;4940547;29;20051;-84
2021/07/29 08:24:58;;;;;;;7.45;4.28;;;;;;;;;;4939834;29;20055;-84
2021/07/29 08:27:25;;;;;;;7.45;5.40;;;;;;;;;;4940605;29;20047;-84
2021/07/29 08:29:54;;;;;;;8.18;4.40;;;;;;;;;;4943822;29;20130;-87
2021/07/29 08:32:24;;;;;;;8.43;5.10;;;;;;;;;;4941411;29;20122;-87
2021/07/29 08:34:56;;;;;;;7.55;4.47;;;;;;;;;;4942651;29;20086;-86
2021/07/29 08:37:26;;;;;;;11.32;6.30;;;;;;;;;;4941673;29;20501;-85
2021/07/29 08:39:52;;;;;;;6.88;4.07;;;;;;;;;;4941130;29;20067;-84
2021/07/29 08:42:19;;;;;;;7.07;4.75;;;;;;;;;;4939404;29;20044;-84
2021/07/29 08:44:46;;;;;;;8.75;4.97;;;;;;;;;;4941298;29;20052;-83
2021/07/29 08:47:21;;;;;;;9.32;5.05;;;;;;;;;;4939934;29;20054;-84
2021/07/29 08:49:53;;;;;;;8.93;4.75;;;;;;;;;;4941046;29;20622;-84
2021/07/29 08:52:19;;;;;;;8.00;4.72;;;;;;;;;;4942031;29;20098;-84
2021/07/29 08:54:47;;;;;;;8.18;4.75;;;;;;;;;;4940309;29;20394;-84
2021/07/29 08:57:14;;;;;;;7.65;4.28;;;;;;;;;;4940504;29;20062;-84
2021/07/29 08:59:41;;;;;;;8.88;4.85;;;;;;;;;;4940691;29;20047;-83
2021/07/29 09:02:22;;;;;;;8.70;5.32;;;;;;;;;;4939907;29;20052;-84
2021/07/29 09:05:07;;;;;;;6.60;4.50;;;;;;;;;;4940007;29;20051;-84
2021/07/29 09:07:34;;;;;;;9.55;5.88;;;;;;;;;;4941395;29;20166;-84
2021/07/29 09:10:03;;;;;;;8.05;4.82;;;;;;;;;;4940272;29;20059;-84
2021/07/29 09:12:31;;;;;;;7.95;5.18;;;;;;;;;;4942043;29;20051;-84
2021/07/29 09:15:00;;;;;;;8.88;5.20;;;;;;;;;;4941081;29;20409;-85
2021/07/29 09:17:29;;;;;;;12.98;8.30;;;;;;;;;;4941069;29;20080;-85
2021/07/29 09:19:57;;;;;;;11.68;8.05;;;;;;;;;;4941982;29;20059;-84
2021/07/29 09:22:26;;;;;;;9.55;5.22;;;;;;;;;;4941944;29;20055;-84
2021/07/29 09:25:08;;;;;;;9.30;4.93;;;;;;;;;;4941350;29;20181;-84
2021/07/29 09:27:43;;;;;;;7.30;4.97;;;;;;;;;;4941601;29;20139;-84
2021/07/29 09:30:11;;;;;;;10.10;4.90;;;;;;;;;;4941484;29;20060;-84
2021/07/29 09:32:51;;;;;;;9.57;5.65;;;;;;;;;;4942609;29;20055;-84
2021/07/29 09:35:34;;;;;;;11.73;5.68;;;;;;;;;;4942474;29;20111;-84
2021/07/29 09:38:02;;;;;;;8.25;5.38;;;;;;;;;;4941731;29;20063;-85
2021/07/29 09:40:42;;;;;;;8.35;5.30;;;;;;;;;;4950066;29;20052;-84
2021/07/29 09:43:11;;;;;;;10.32;6.40;;;;;;;;;;4945526;29;20102;-84
2021/07/29 09:45:38;;;;;;;8.93;5.30;;;;;;;;;;4942255;29;20107;-84
2021/07/29 09:48:07;;;;;;;7.85;5.07;;;;;;;;;;4941929;29;20290;-84
2021/07/29 09:50:37;;;;;;;9.73;6.03;;;;;;;;;;4941058;29;20067;-84
2021/07/29 09:53:04;;;;;;;7.18;4.75;;;;;;;;;;4941784;29;20059;-84
2021/07/29 09:55:32;;;;;;;8.13;4.90;;;;;;;;;;4941423;29;20048;-84
2021/07/29 09:58:00;;;;;;;9.70;5.97;;;;;;;;;;4942498;29;20051;-85
2021/07/29 10:00:29;;;;;;;8.82;5.45;;;;;;;;;;4943296;29;20052;-85
2021/07/29 10:03:01;;;;;;;9.88;6.10;;;;;;;;;;4943786;29;20059;-84
2021/07/29 10:05:37;;;;;;;7.68;5.30;;;;;;;;;;4943079;29;20479;-84
2021/07/29 10:08:10;;;;;;;10.23;6.22;;;;;;;;;;4942523;29;20048;-84
2021/07/29 10:10:39;;;;;;;11.50;8.40;;;;;;;;;;4942838;29;20581;-84
2021/07/29 10:13:06;;;;;;;11.20;6.75;;;;;;;;;;4942344;29;20130;-84
2021/07/29 10:15:43;;;;;;;10.75;5.70;;;;;;;;;;4941475;29;20051;-83
2021/07/29 10:18:11;;;;;;;10.45;5.95;;;;;;;;;;4940901;29;20051;-84
2021/07/29 10:20:40;;;;;;;10.63;5.55;;;;;;;;;;4939675;29;20056;-83
2021/07/29 10:23:51;;;;;;;9.15;5.75;;;;;;;;;;4940851;29;20055;-84
2021/07/29 10:26:18;;;;;;;10.07;5.40;;;;;;;;;;4947850;29;20071;-84
2021/07/29 10:28:45;;;;;;;10.13;5.75;;;;;;;;;;4945004;29;20058;-84
2021/07/29 10:31:16;;;;;;;11.93;6.57;;;;;;;;;;4942119;29;20054;-85
2021/07/29 10:33:44;;;;;;;8.65;5.18;;;;;;;;;;4949210;29;20120;-85
2021/07/29 10:36:43;;;;;;;8.48;5.47;;;;;;;;;;4947954;29;20056;-83
2021/07/29 10:39:13;;;;;;;8.63;5.78;;;;;;;;;;4945537;29;20102;-86
2021/07/29 10:41:52;;;;;;;8.60;6.15;;;;;;;;;;4944081;29;20107;-85
2021/07/29 10:44:51;;;;;;;12.25;6.82;;;;;;;;;;4945868;29;20485;-85
2021/07/29 10:47:51;;;;;;;10.23;6.03;;;;;;;;;;4944698;29;20047;-83
2021/07/29 10:50:21;;;;;;;9.52;6.93;;;;;;;;;;4948485;29;20088;-83
2021/07/29 10:52:50;;;;;;;9.68;6.38;;;;;;;;;;4947405;29;20055;-82
2021/07/29 10:55:21;;;;;;;13.05;7.00;;;;;;;;;;4949810;29;20052;-87
2021/07/29 10:58:02;;;;;;;10.93;6.65;;;;;;;;;;4952058;29;20055;-84
2021/07/29 11:00:29;;;;;;;10.75;6.70;;;;;;;;;;4951848;29;20058;-85
2021/07/29 11:02:58;;;;;;;9.88;6.00;;;;;;;;;;4952509;29;20059;-84
2021/07/29 11:05:34;;;;;;;8.90;6.07;;;;;;;;;;4948677;29;20120;-84
2021/07/29 11:08:02;;;;;;;10.48;6.90;;;;;;;;;;4957088;28;20039;-83
2021/07/29 11:10:30;;;;;;;9.75;6.57;;;;;;;;;;4960824;28;20042;-83
2021/07/29 11:12:57;;;;;;;10.40;6.20;;;;;;;;;;4960498;28;20056;-84
2021/07/29 11:15:26;;;;;;;13.73;9.68;;;;;;;;;;4959622;28;20035;-84
2021/07/29 11:17:53;;;;;;;14.07;9.98;;;;;;;;;;4959675;28;20036;-85
2021/07/29 11:20:28;;;;;;;9.25;6.00;;;;;;;;;;4957368;28;20052;-83
2021/07/29 11:22:55;;;;;;;9.13;6.32;;;;;;;;;;4941413;29;20055;-84
2021/07/29 11:25:22;;;;;;;8.77;6.10;;;;;;;;;;4940687;29;20048;-83
2021/07/29 11:27:50;;;;;;;10.93;6.60;;;;;;;;;;4941534;29;20098;-85
2021/07/29 11:30:18;;;;;;;9.45;6.07;;;;;;;;;;4941332;29;20047;-86
2021/07/29 11:32:46;;;;;;;9.98;6.15;;;;;;;;;;4946536;29;20051;-87
2021/07/29 11:35:16;;;;;;;9.23;6.55;;;;;;;;;;4948025;29;20051;-88
2021/07/29 11:37:47;;;;;;;7.95;5.85;;;;;;;;;;4945909;29;20076;-83
2021/07/29 11:40:31;;;;;;;9.18;6.00;;;;;;;;;;4939927;29;20047;-86
2021/07/29 11:43:00;;;;;;;9.38;6.25;;;;;;;;;;4942731;29;20071;-86
2021/07/29 11:45:32;;;;;;;9.55;6.38;;;;;;;;;;4941191;29;20078;-85
2021/07/29 11:48:00;;;;;;;8.80;6.00;;;;;;;;;;4942313;29;20082;-84
2021/07/29 11:50:37;;;;;;;8.65;6.05;;;;;;;;;;4947100;29;20051;-87
2021/07/29 11:53:04;;;;;;;9.30;6.07;;;;;;;;;;4947852;29;20054;-85
2021/07/29 11:55:32;;;;;;;9.43;5.85;;;;;;;;;;4947328;29;20051;-85
2021/07/29 11:58:11;;;;;;;8.70;6.10;;;;;;;;;;4948008;29;20076;-87
2021/07/29 12:00:38;;;;;;;7.57;5.38;;;;;;;;;;4949251;29;20035;-85
2021/07/29 12:03:07;;;;;;;9.27;5.50;;;;;;;;;;4948799;29;20047;-86
2021/07/29 12:05:40;;;;;;;10.30;7.50;;;;;;;;;;4947909;29;20166;-85
2021/07/29 12:08:08;;;;;;;10.25;6.80;;;;;;;;;;4945128;29;20327;-86
2021/07/29 12:10:37;;;;;;;8.77;6.15;;;;;;;;;;4947928;29;20052;-86
2021/07/29 12:13:09;;;;;;;10.07;5.82;;;;;;;;;;4945524;29;20103;-85
2021/07/29 12:15:36;;;;;;;10.68;6.45;;;;;;;;;;4948854;29;20051;-83
2021/07/29 12:18:16;;;;;;;10.05;6.47;;;;;;;;;;4951618;29;20051;-84
2021/07/29 12:20:46;;;;;;;9.25;5.90;;;;;;;;;;4953359;29;20048;-84
2021/07/29 12:23:14;;;;;;;9.07;5.50;;;;;;;;;;4952944;29;20043;-84
2021/07/29 12:25:41;;;;;;;9.27;6.50;;;;;;;;;;4950181;29;20051;-84
2021/07/29 12:28:10;;;;;;;8.85;6.80;;;;;;;;;;4952356;29;20044;-86
2021/07/29 12:30:39;;;;;;;10.23;6.40;;;;;;;;;;4951560;29;20043;-85
2021/07/29 12:33:10;;;;;;;9.55;6.88;;;;;;;;;;4944361;29;20058;-84
2021/07/29 12:35:37;;;;;;;8.15;5.60;;;;;;;;;;4937027;29;20054;-83
2021/07/29 12:38:04;;;;;;;10.13;6.28;;;;;;;;;;4939845;29;20501;-85
2021/07/29 12:40:32;;;;;;;10.00;8.30;;;;;;;;;;4939532;29;20051;-84
2021/07/29 12:43:22;;;;;;;9.77;6.70;;;;;;;;;;4941709;29;20151;-83
2021/07/29 12:45:54;;;;;;;10.88;6.38;;;;;;;;;;4957951;28;20032;-83
2021/07/29 12:48:22;;;;;;;9.02;6.22;;;;;;;;;;4956130;28;20051;-84
2021/07/29 12:50:49;;;;;;;8.40;5.90;;;;;;;;;;4945076;29;20157;-84
2021/07/29 12:53:19;;;;;;;7.93;5.60;;;;;;;;;;4945765;29;20055;-83
2021/07/29 12:55:48;;;;;;;8.88;5.95;;;;;;;;;;4941275;29;20056;-84
2021/07/29 12:58:16;;;;;;;8.88;7.20;;;;;;;;;;4945699;29;20105;-84
2021/07/29 13:00:46;;;;;;;8.23;6.28;;;;;;;;;;4946838;29;20074;-84
2021/07/29 13:03:27;;;;;;;9.65;7.38;;;;;;;;;;4954284;29;20052;-84
2021/07/29 13:05:55;;;;;;;9.05;5.90;;;;;;;;;;4954822;29;20044;-84
2021/07/29 13:08:29;;;;;;;9.57;6.55;;;;;;;;;;4956888;29;20061;-83
2021/07/29 13:10:56;;;;;;;9.68;6.68;;;;;;;;;;4962517;28;20047;-83
2021/07/29 13:13:28;;;;;;;9.20;6.53;;;;;;;;;;4962511;28;20047;-82
2021/07/29 13:15:57;;;;;;;9.10;6.57;;;;;;;;;;4962166;28;20044;-84
2021/07/29 13:18:25;;;;;;;9.43;6.47;;;;;;;;;;4960437;28;20027;-83
2021/07/29 13:20:52;;;;;;;9.07;6.05;;;;;;;;;;4950218;29;20084;-83
2021/07/29 13:23:20;;;;;;;16.80;13.23;;;;;;;;;;4948639;29;20051;-87
2021/07/29 13:25:48;;;;;;;12.32;9.15;;;;;;;;;;4943514;29;20062;-84
2021/07/29 13:28:19;;;;;;;9.15;6.55;;;;;;;;;;4946887;29;20135;-84
2021/07/29 13:30:47;;;;;;;10.60;6.18;;;;;;;;;;4947206;29;20044;-83
2021/07/29 13:33:18;;;;;;;8.10;5.88;;;;;;;;;;4946509;29;20055;-84
2021/07/29 13:35:47;;;;;;;8.35;6.05;;;;;;;;;;4942095;29;20482;-84
2021/07/29 13:38:14;;;;;;;8.40;5.75;;;;;;;;;;4946680;29;20604;-83
2021/07/29 13:40:41;;;;;;;8.48;6.10;;;;;;;;;;4958217;23;20077;-77
2021/07/29 13:43:08;;;;;;;8.07;6.00;;;;;;;;;;4972994;28;20101;-77
2021/07/29 13:45:34;;;;;;;8.05;5.53;;;;;;;;;;4972606;28;20627;-76
2021/07/29 13:48:02;;;;;;;8.60;5.95;;;;;;;;;;4973166;28;20047;-76
2021/07/29 13:50:31;;;;;;;7.65;5.57;;;;;;;;;;4973205;28;20046;-76
2021/07/29 13:53:00;;;;;;;8.10;5.80;;;;;;;;;;4953927;29;20054;-76
2021/07/29 13:55:28;;;;;;;9.05;5.75;;;;;;;;;;4953263;29;20506;-77
2021/07/29 13:57:55;;;;;;;8.13;5.90;;;;;;;;;;4954994;29;20043;-77
2021/07/29 14:00:23;;;;;;;8.68;5.40;;;;;;;;;;4953867;29;20055;-77
2021/07/29 14:02:51;;;;;;;7.82;5.70;;;;;;;;;;4934289;29;20094;-77
2021/07/29 14:05:18;;;;;;;8.48;6.30;;;;;;;;;;4933891;29;20123;-77
2021/07/29 14:07:47;;;;;;;8.75;5.97;;;;;;;;;;4934637;29;20047;-76
2021/07/29 14:10:16;;;;;;;7.38;5.57;;;;;;;;;;4934730;29;20063;-77
2021/07/29 14:12:43;;;;;;;9.98;6.07;;;;;;;;;;4934658;29;20054;-75
2021/07/29 14:15:11;;;;;;;8.48;5.40;;;;;;;;;;4934621;29;20048;-76
2021/07/29 14:17:42;;;;;;;8.75;6.65;;;;;;;;;;4935476;29;20056;-77
2021/07/29 14:20:13;;;;;;;9.65;5.90;;;;;;;;;;4934693;29;20066;-76
2021/07/29 14:25:28;;;;;;;9.88;6.43;;;;;;;;;;4933450;29;20055;-77
2021/07/29 14:27:56;;;;;;;8.70;5.93;;;;;;;;;;4933774;29;20048;-76
2021/07/29 14:30:23;;;;;;;9.85;6.55;;;;;;;;;;4934048;29;20047;-77
2021/07/29 14:32:50;;;;;;;9.18;6.30;;;;;;;;;;4934115;29;20043;-77
2021/07/29 14:35:17;;;;;;;8.35;5.70;;;;;;;;;;4933577;29;20138;-77
2021/07/29 14:37:43;;;;;;;8.88;6.25;;;;;;;;;;4934260;29;20052;-76
2021/07/29 14:40:12;;;;;;;8.07;6.15;;;;;;;;;;4933950;29;20063;-76
2021/07/29 14:42:40;;;;;;;7.70;5.75;;;;;;;;;;4933637;29;20052;-77
2021/07/29 14:50:35;;;;;;;8.50;6.20;;;;;;;;;;4924431;29;20055;-76
2021/07/29 14:53:02;;;;;;;7.70;5.88;;;;;;;;;;4933266;29;20055;-76
2021/07/29 14:55:31;;;;;;;7.40;6.00;;;;;;;;;;4933015;29;20136;-76
2021/07/29 16:09:14;;;;;;;8.95;6.35;;;;;;;;;;4936584;29;20134;-77
2021/07/29 16:11:42;;;;;;;9.40;6.77;;;;;;;;;;4932561;29;20048;-76